Terminal Aerodrome Forecast
Issued by NWS

Home | Current Version | Previous Version | Text Only | Print | Product List | Glossary On
Versions: 1 2 3 4 5 6 7 8 9 10 11 12
000
FTUS45 KREV 042320
TAFMMH
TAF
KMMH 042320Z 0500/0524 30011G19KT P6SM FEW070 SCT180
     FM050200 28014G22KT P6SM SCT070 BKN180
     FM050900 27010KT P6SM SCT070 BKN180
     FM051900 27014G24KT P6SM SCT070 BKN160=

USA.gov is the U.S. government's official web portal to all federal, state and local government web resources and services.